Portada
METAR-TAF:

METAR-TAF

Aeroports :

Sitifis, Algèria

latitud: 36-11N, longitud: 005-25E, altitud: 1038 m

Observació

L'informe es va fer fa 34 minuts, a les 21:00 UTC
Vent 11 kt del Sud/Sud-Oest
Temperatura 11°C
Humitat 76%
Pressió 1010 hPa
Visibilitat: 8000 m
Escasses núvols a una alçada de 1000 ft
Núvols disperses a una alçada de 2600 ft

METAR: DAAS 182100Z 20011KT 8000 FEW010 SCT026 11/07 Q1010

Hora: 22:34 (21:34 UTC)

Pronòstic

L'informe es va fer fa 4 hores i 34 minuts, a les 17:00 UTC
Pronòstic vàlid del 18 a les 18 UTC al 19 a les 18 UTC
Vent 12 kt del Sud/Sud-Oest
Visibilitat: 8000 m
Escasses núvols a una alçada de 2600 ft
Núvols disperses a una alçada de 10000 ft
Probabilitat 30% :
Temporalment
l' 19 a les 00 UTC al 19 a les 06 UTC
Visibilitat: 3000 m
Núvols disperses a una alçada de 800 ft
boirina

TAF: DAAS 181700Z 1818/1918 20012KT 8000 FEW026 SCT100 PROB30 TEMPO 1900/1906 3000 BR SCT008

Observacions i pronòstics meteorològics de més de 4000 aeroports (METAR i TAF).

Les estacions disponibles són els punts grocs i vermells al mapa.

Posi el ratolí al punt desitjat per veure el nom de l'estació.

Feu clic per veure les observacions i els pronòstics meteorològics.

Per canviar el mapa: feu clic els botons verds amb una creu de color negre per apropar; al botó verd amb un guió per allunyar la imatge; o en les fletxes verdes per a mapes adjacents.


METAR-TAF: